Time;durP1;ratioP1;P1;durP2;ratioP2;P2;SDS_P1;SDS_P2;PMS_P1;PMS_P2;Temp;Humidity;BMP_temperature;BMP_pressure;BME280_temperature;BME280_humidity;BME280_pressure;Samples;Min_cycle;Max_cycle;Signal;HPM_P1;HPM_P2
2022/01/01 00:01:31;;;;;;;3.95;3.65;;;10.50;99.90;;;;;;5033342;28;20573;-74
2022/01/01 00:03:57;;;;;;;4.53;4.13;;;10.50;99.90;;;;;;5034305;28;20173;-74
2022/01/01 00:06:22;;;;;;;4.45;4.05;;;10.50;99.90;;;;;;5030751;28;20184;-75
2022/01/01 00:08:48;;;;;;;4.72;4.07;;;10.50;99.90;;;;;;5029649;28;20188;-74
2022/01/01 00:11:14;;;;;;;4.32;4.03;;;10.50;99.90;;;;;;5032639;28;20570;-74
2022/01/01 00:13:39;;;;;;;3.83;3.53;;;10.50;99.90;;;;;;5033179;28;20254;-74
2022/01/01 00:16:09;;;;;;;4.35;3.80;;;10.50;99.90;;;;;;5033027;28;20272;-75
2022/01/01 00:18:38;;;;;;;4.88;3.72;;;10.50;99.90;;;;;;5036012;28;20196;-75
2022/01/01 00:21:04;;;;;;;3.42;3.22;;;10.40;99.90;;;;;;5032305;28;20243;-74
2022/01/01 00:23:30;;;;;;;4.05;3.80;;;10.40;99.90;;;;;;5025609;28;20177;-74
2022/01/01 00:25:56;;;;;;;5.57;3.65;;;10.50;99.90;;;;;;5032516;28;20181;-74
2022/01/01 00:28:21;;;;;;;5.15;3.70;;;10.50;99.90;;;;;;5037039;28;20230;-74
2022/01/01 00:30:47;;;;;;;4.43;4.03;;;10.50;99.90;;;;;;5033673;28;20204;-74
2022/01/01 00:33:12;;;;;;;3.75;3.47;;;10.60;99.90;;;;;;5037442;28;20795;-74
2022/01/01 00:35:40;;;;;;;4.07;3.67;;;10.70;99.90;;;;;;5031797;28;20242;-74
2022/01/01 00:38:06;;;;;;;6.10;4.35;;;10.70;99.90;;;;;;5035522;28;20707;-75
2022/01/01 00:40:32;;;;;;;4.65;4.00;;;10.70;99.90;;;;;;5034263;28;20206;-74
2022/01/01 00:42:57;;;;;;;5.13;3.47;;;10.70;99.90;;;;;;5027394;28;20268;-74
2022/01/01 00:45:23;;;;;;;3.85;3.50;;;10.80;99.90;;;;;;5034676;28;20211;-74
2022/01/01 00:47:49;;;;;;;3.55;3.25;;;10.80;99.90;;;;;;5035482;28;20188;-74
2022/01/01 00:50:14;;;;;;;3.95;3.50;;;10.80;99.90;;;;;;5034451;28;20655;-74
2022/01/01 00:52:42;;;;;;;3.33;3.08;;;10.90;99.90;;;;;;5032956;28;20185;-74
2022/01/01 00:55:08;;;;;;;4.22;3.83;;;10.80;99.90;;;;;;5038076;28;20631;-74
2022/01/01 00:57:34;;;;;;;3.63;3.33;;;10.80;99.90;;;;;;5031784;28;20200;-74
2022/01/01 01:00:01;;;;;;;3.95;3.60;;;10.70;99.90;;;;;;5033581;28;20199;-74
2022/01/01 01:02:27;;;;;;;4.10;3.80;;;10.60;99.90;;;;;;5031155;28;20179;-74
2022/01/01 01:04:52;;;;;;;3.33;3.05;;;10.60;99.90;;;;;;5035908;28;20180;-75
2022/01/01 01:07:18;;;;;;;3.13;2.90;;;10.50;99.90;;;;;;5033402;28;20555;-75
2022/01/01 01:09:44;;;;;;;3.72;3.42;;;10.50;99.90;;;;;;5033991;28;20531;-74
2022/01/01 01:12:10;;;;;;;3.88;3.40;;;10.50;99.90;;;;;;5032438;28;20231;-74
2022/01/01 01:14:40;;;;;;;3.63;3.33;;;10.50;99.90;;;;;;5032520;28;20573;-74
2022/01/01 01:17:07;;;;;;;4.70;4.25;;;10.40;99.90;;;;;;5033945;28;20191;-74
2022/01/01 01:19:33;;;;;;;3.63;3.33;;;10.40;99.90;;;;;;5034612;28;20683;-74
2022/01/01 01:21:58;;;;;;;4.60;3.47;;;10.30;99.90;;;;;;5032878;28;20192;-75
2022/01/01 01:24:25;;;;;;;4.00;3.70;;;10.30;99.90;;;;;;5033552;28;20185;-74
2022/01/01 01:26:52;;;;;;;5.88;3.95;;;10.20;99.90;;;;;;5035398;28;20722;-74
2022/01/01 01:29:19;;;;;;;4.38;3.97;;;10.20;99.90;;;;;;5033904;28;20199;-74
2022/01/01 01:31:46;;;;;;;4.57;4.22;;;10.20;99.90;;;;;;5030074;28;20266;-74
2022/01/01 01:34:12;;;;;;;3.67;3.38;;;10.20;99.90;;;;;;5033044;28;20731;-74
2022/01/01 01:36:38;;;;;;;3.97;3.67;;;10.20;99.90;;;;;;5035112;28;20292;-73
2022/01/01 01:39:04;;;;;;;4.43;3.75;;;10.20;99.90;;;;;;5026490;28;20577;-74
2022/01/01 01:41:31;;;;;;;4.10;3.78;;;10.20;99.90;;;;;;5034855;28;20646;-74
2022/01/01 01:43:59;;;;;;;4.53;4.10;;;10.20;99.90;;;;;;5026951;28;20203;-74
2022/01/01 01:46:26;;;;;;;4.63;4.22;;;10.20;99.90;;;;;;5032140;28;20242;-73
2022/01/01 01:48:52;;;;;;;3.83;3.53;;;10.20;99.90;;;;;;5030796;28;20193;-74
2022/01/01 01:51:18;;;;;;;5.88;4.13;;;10.20;99.90;;;;;;5029335;28;20220;-74
2022/01/01 01:53:43;;;;;;;4.80;4.30;;;10.20;99.90;;;;;;5027649;28;20185;-74
2022/01/01 01:56:09;;;;;;;4.75;4.03;;;10.30;99.90;;;;;;5033723;28;20187;-73
2022/01/01 01:58:35;;;;;;;4.03;3.72;;;10.40;99.90;;;;;;5025535;28;20347;-73
2022/01/01 02:03:45;;;;;;;4.97;4.03;;;10.40;99.90;;;;;;5024487;28;20843;-73
2022/01/01 02:06:11;;;;;;;4.57;4.18;;;10.40;99.90;;;;;;5035837;28;20266;-74
2022/01/01 02:08:37;;;;;;;4.63;4.22;;;10.40;99.90;;;;;;5029005;28;20268;-74
2022/01/01 02:11:03;;;;;;;4.22;3.88;;;10.30;99.90;;;;;;5029421;28;20585;-73
2022/01/01 02:13:33;;;;;;;4.93;4.47;;;10.40;99.90;;;;;;5031951;28;20181;-73
2022/01/01 02:18:52;;;;;;;4.43;4.03;;;10.40;99.90;;;;;;5031481;28;20204;-73
2022/01/01 02:21:20;;;;;;;5.82;4.60;;;10.40;99.90;;;;;;5025556;28;20221;-74
2022/01/01 02:23:46;;;;;;;4.22;3.65;;;10.50;99.90;;;;;;5031258;28;20180;-73
2022/01/01 02:26:15;;;;;;;4.60;4.15;;;10.60;99.90;;;;;;5034713;28;20184;-74
2022/01/01 02:28:46;;;;;;;4.30;3.90;;;10.50;99.90;;;;;;5027641;28;20188;-73
2022/01/01 02:31:13;;;;;;;4.50;4.05;;;10.60;99.90;;;;;;5045329;28;20460;-73
2022/01/01 02:33:39;;;;;;;2.95;2.67;;;10.60;99.90;;;;;;5026358;28;20185;-74
2022/01/01 02:36:05;;;;;;;3.60;3.30;;;10.60;99.90;;;;;;5035381;28;20241;-74
2022/01/01 02:38:36;;;;;;;3.83;3.53;;;10.70;99.90;;;;;;5030759;28;20215;-73
2022/01/01 02:41:02;;;;;;;3.67;3.05;;;10.70;99.90;;;;;;5031513;28;20194;-73
2022/01/01 02:43:28;;;;;;;3.78;3.30;;;10.70;99.90;;;;;;5030868;28;20184;-73
2022/01/01 02:45:54;;;;;;;3.42;3.13;;;10.70;99.90;;;;;;5035126;28;20178;-73
2022/01/01 02:48:20;;;;;;;3.38;3.17;;;10.70;99.90;;;;;;5031897;28;20184;-73
2022/01/01 02:50:46;;;;;;;3.30;3.10;;;10.60;99.90;;;;;;5036325;28;20226;-73
2022/01/01 02:53:16;;;;;;;3.42;3.10;;;10.50;99.90;;;;;;5029175;28;20172;-73
2022/01/01 02:55:43;;;;;;;3.58;3.15;;;10.50;99.90;;;;;;5032455;28;20655;-73
2022/01/01 02:58:10;;;;;;;3.55;3.25;;;10.50;99.90;;;;;;5033048;28;20208;-74
2022/01/01 03:00:37;;;;;;;3.10;2.92;;;10.50;99.90;;;;;;5028831;28;20209;-73
2022/01/01 03:03:03;;;;;;;3.03;2.83;;;10.50;99.90;;;;;;5033198;28;20192;-73
2022/01/01 03:05:30;;;;;;;3.42;3.13;;;10.60;99.90;;;;;;5033424;28;20302;-73
2022/01/01 03:07:56;;;;;;;5.38;3.22;;;10.60;99.90;;;;;;5032426;28;20181;-73
2022/01/01 03:10:22;;;;;;;4.28;3.50;;;10.60;99.90;;;;;;5036972;28;20666;-74
2022/01/01 03:12:48;;;;;;;3.60;2.88;;;10.60;99.90;;;;;;5033497;28;20556;-73
2022/01/01 03:15:14;;;;;;;3.47;3.15;;;10.60;99.90;;;;;;5031988;28;20196;-73
2022/01/01 03:17:39;;;;;;;3.47;3.20;;;10.70;99.90;;;;;;5027682;28;20640;-74
2022/01/01 03:20:06;;;;;;;5.88;3.63;;;10.70;99.90;;;;;;5033602;28;20181;-73
2022/01/01 03:22:31;;;;;;;4.95;3.55;;;10.70;99.90;;;;;;5031376;28;20177;-74
2022/01/01 03:24:57;;;;;;;5.57;4.93;;;10.60;99.90;;;;;;5029801;28;20675;-73
2022/01/01 03:27:22;;;;;;;4.97;4.57;;;10.60;99.90;;;;;;5026120;28;20483;-73
2022/01/01 03:29:48;;;;;;;8.10;6.55;;;10.40;99.90;;;;;;5032458;28;20188;-74
2022/01/01 03:32:15;;;;;;;9.27;7.18;;;10.40;99.90;;;;;;5031313;28;20283;-74
2022/01/01 03:34:41;;;;;;;9.95;7.10;;;10.30;99.90;;;;;;5023443;28;20168;-74
2022/01/01 03:37:07;;;;;;;7.97;6.13;;;10.30;99.90;;;;;;5024791;28;20188;-74
2022/01/01 03:39:33;;;;;;;7.65;6.85;;;10.20;99.90;;;;;;5033690;28;20216;-74
2022/01/01 03:41:58;;;;;;;11.18;7.18;;;10.10;99.90;;;;;;5028326;28;20283;-74
2022/01/01 03:44:24;;;;;;;7.25;6.40;;;10.00;99.90;;;;;;5029251;28;20199;-74
2022/01/01 03:46:49;;;;;;;8.93;6.90;;;9.90;99.90;;;;;;5031408;28;20184;-74
2022/01/01 03:49:15;;;;;;;6.53;5.82;;;9.90;99.90;;;;;;5026542;28;20255;-74
2022/01/01 03:51:41;;;;;;;8.93;6.63;;;9.90;99.90;;;;;;5034068;28;20204;-74
2022/01/01 03:54:07;;;;;;;6.40;4.60;;;9.80;99.90;;;;;;5025611;28;20180;-74
2022/01/01 03:56:32;;;;;;;10.90;6.07;;;9.80;99.90;;;;;;5028778;28;20184;-73
2022/01/01 03:58:59;;;;;;;9.73;7.43;;;9.80;99.90;;;;;;5032482;28;20262;-73
2022/01/01 04:01:24;;;;;;;7.75;6.82;;;9.70;99.90;;;;;;5025175;28;20687;-74
2022/01/01 04:03:50;;;;;;;7.75;6.60;;;9.70;99.90;;;;;;5028371;28;20199;-74
2022/01/01 04:06:15;;;;;;;7.72;6.32;;;9.70;99.90;;;;;;5020708;28;20177;-74
2022/01/01 04:08:41;;;;;;;10.88;7.25;;;9.70;99.90;;;;;;5033325;28;20185;-74
2022/01/01 04:11:07;;;;;;;8.43;6.93;;;9.80;99.90;;;;;;5031014;28;20204;-74
2022/01/01 04:13:33;;;;;;;9.38;6.63;;;9.80;99.90;;;;;;5024975;28;20209;-73
2022/01/01 04:15:59;;;;;;;8.98;6.95;;;9.80;99.90;;;;;;5022985;28;20192;-73
2022/01/01 04:18:28;;;;;;;4.63;4.18;;;9.80;99.90;;;;;;5027444;28;20234;-73
2022/01/01 04:20:54;;;;;;;9.60;6.30;;;9.90;99.90;;;;;;5028610;28;20216;-73
2022/01/01 04:23:20;;;;;;;11.43;6.78;;;9.90;99.90;;;;;;5030692;28;20185;-73
2022/01/01 04:25:47;;;;;;;7.90;7.05;;;9.90;99.90;;;;;;5030712;28;20621;-74
2022/01/01 04:28:13;;;;;;;10.23;7.10;;;9.90;99.90;;;;;;5035972;28;20445;-73
2022/01/01 04:30:39;;;;;;;7.95;6.38;;;9.80;99.90;;;;;;5033308;28;20486;-73
2022/01/01 04:33:04;;;;;;;9.65;5.88;;;9.80;99.90;;;;;;5031114;28;20242;-73
2022/01/01 04:35:30;;;;;;;8.80;5.95;;;9.90;99.90;;;;;;5032987;28;20631;-73
2022/01/01 04:37:56;;;;;;;10.35;7.43;;;9.80;99.90;;;;;;5032122;28;20238;-73
2022/01/01 04:40:21;;;;;;;8.40;6.60;;;9.80;99.90;;;;;;5034387;28;20250;-73
2022/01/01 04:42:47;;;;;;;6.18;5.57;;;9.70;99.90;;;;;;5028351;28;20177;-73
2022/01/01 04:45:13;;;;;;;8.05;6.15;;;9.70;99.90;;;;;;5032417;28;20184;-73
2022/01/01 04:47:38;;;;;;;9.60;5.60;;;9.80;99.90;;;;;;5030430;28;20185;-73
2022/01/01 04:50:05;;;;;;;6.80;5.82;;;9.80;99.90;;;;;;5034285;28;20200;-73
2022/01/01 04:52:31;;;;;;;8.93;7.38;;;9.80;99.90;;;;;;5032048;28;20214;-74
2022/01/01 04:54:57;;;;;;;9.23;6.60;;;9.80;99.90;;;;;;5030962;28;20188;-73
2022/01/01 04:57:29;;;;;;;8.35;6.70;;;9.90;99.90;;;;;;5033486;28;20183;-73
2022/01/01 04:59:54;;;;;;;8.10;7.30;;;9.90;99.90;;;;;;5029924;28;20208;-74
2022/01/01 05:02:20;;;;;;;8.20;7.03;;;9.80;99.90;;;;;;5035070;28;20192;-74
2022/01/01 05:04:45;;;;;;;7.72;6.53;;;9.90;99.90;;;;;;5031980;28;20188;-74
2022/01/01 05:07:11;;;;;;;6.50;5.38;;;9.80;99.90;;;;;;5032791;28;20635;-74
2022/01/01 05:09:37;;;;;;;8.35;6.57;;;9.90;99.90;;;;;;5029326;28;20640;-74
2022/01/01 05:12:03;;;;;;;9.07;6.47;;;9.90;99.90;;;;;;5032989;28;20283;-73
2022/01/01 05:14:30;;;;;;;8.75;6.47;;;9.90;99.90;;;;;;5029728;28;20655;-74
2022/01/01 05:16:56;;;;;;;7.60;5.97;;;9.80;99.90;;;;;;5035090;28;20176;-74
2022/01/01 05:19:22;;;;;;;6.45;5.63;;;9.80;99.90;;;;;;5030862;28;20517;-74
2022/01/01 05:21:48;;;;;;;8.98;6.13;;;9.80;99.90;;;;;;5028799;28;20200;-73
2022/01/01 05:24:18;;;;;;;7.78;6.82;;;9.90;99.90;;;;;;5028755;28;20177;-73
2022/01/01 05:26:45;;;;;;;7.03;6.32;;;9.80;99.90;;;;;;5030124;28;20180;-73
2022/01/01 05:29:11;;;;;;;8.07;6.95;;;9.80;99.90;;;;;;5030074;28;20191;-73
2022/01/01 05:31:36;;;;;;;7.32;5.95;;;9.80;99.90;;;;;;5026466;28;20201;-73
2022/01/01 05:34:03;;;;;;;6.00;5.40;;;9.80;99.90;;;;;;5026231;28;20258;-73
2022/01/01 05:36:29;;;;;;;8.20;6.20;;;9.80;99.90;;;;;;5028013;28;20181;-73
2022/01/01 05:38:55;;;;;;;7.63;5.63;;;9.80;99.90;;;;;;5030008;28;20227;-74
2022/01/01 05:41:21;;;;;;;9.25;7.53;;;9.70;99.90;;;;;;5030079;28;20188;-73
2022/01/01 05:43:46;;;;;;;7.97;6.40;;;9.70;99.90;;;;;;5024598;28;20635;-73
2022/01/01 05:46:12;;;;;;;8.02;6.57;;;9.70;99.90;;;;;;5032730;28;20183;-73
2022/01/01 05:48:38;;;;;;;5.88;5.13;;;9.70;99.90;;;;;;5031252;28;20592;-74
2022/01/01 05:51:04;;;;;;;8.85;6.57;;;9.70;99.90;;;;;;5031170;28;20208;-75
2022/01/01 05:53:30;;;;;;;6.93;6.22;;;9.70;99.90;;;;;;5028252;28;20192;-75
2022/01/01 05:55:55;;;;;;;8.40;6.35;;;9.60;99.90;;;;;;5021485;28;20626;-75
2022/01/01 05:58:21;;;;;;;6.38;5.78;;;9.70;99.90;;;;;;5037302;28;20205;-75
2022/01/01 06:00:47;;;;;;;9.90;5.72;;;9.60;99.90;;;;;;5026155;28;20608;-75
2022/01/01 06:03:15;;;;;;;6.88;6.10;;;9.60;99.90;;;;;;5033345;28;20180;-75
2022/01/01 06:05:41;;;;;;;7.82;6.43;;;9.60;99.90;;;;;;5025489;28;20949;-75
2022/01/01 06:08:07;;;;;;;7.97;6.68;;;9.60;99.90;;;;;;5033326;28;20195;-75
2022/01/01 06:10:32;;;;;;;7.47;6.07;;;9.50;99.90;;;;;;5025456;28;20205;-75
2022/01/01 06:12:58;;;;;;;7.35;5.68;;;9.50;99.90;;;;;;5031562;28;20189;-75
2022/01/01 06:15:24;;;;;;;7.10;5.80;;;9.40;99.90;;;;;;5028498;28;20864;-75
2022/01/01 06:17:50;;;;;;;6.43;5.35;;;9.40;99.90;;;;;;5025162;28;20229;-75
2022/01/01 06:20:15;;;;;;;8.20;6.32;;;9.40;99.90;;;;;;5029006;28;20745;-75
2022/01/01 06:22:42;;;;;;;8.35;7.00;;;9.40;99.90;;;;;;5029758;28;20184;-75
2022/01/01 06:25:08;;;;;;;7.80;5.93;;;9.30;99.90;;;;;;5025543;28;20643;-75
2022/01/01 06:27:34;;;;;;;7.60;6.35;;;9.20;99.90;;;;;;5029690;28;20579;-75
2022/01/01 06:29:59;;;;;;;7.28;6.57;;;9.10;99.90;;;;;;5029878;28;20187;-76
2022/01/01 06:32:25;;;;;;;7.28;6.30;;;9.10;99.90;;;;;;5025298;28;20180;-75
2022/01/01 06:34:51;;;;;;;8.50;6.80;;;9.20;99.90;;;;;;5030726;28;20193;-75
2022/01/01 06:37:16;;;;;;;7.50;6.15;;;9.20;99.90;;;;;;5030534;28;20255;-75
2022/01/01 06:39:43;;;;;;;7.80;6.13;;;9.40;99.90;;;;;;5028032;28;20204;-75
2022/01/01 06:42:09;;;;;;;7.70;6.82;;;9.50;99.90;;;;;;5033560;28;20202;-75
2022/01/01 06:44:34;;;;;;;6.63;5.72;;;9.50;99.90;;;;;;5024806;28;20188;-75
2022/01/01 06:47:00;;;;;;;6.88;6.03;;;9.50;99.90;;;;;;5028787;28;20714;-75
2022/01/01 06:49:25;;;;;;;8.63;6.38;;;9.60;99.90;;;;;;5036547;28;20183;-75
2022/01/01 06:51:51;;;;;;;6.78;5.88;;;9.60;99.90;;;;;;5032031;28;20205;-74
2022/01/01 06:54:17;;;;;;;6.75;5.63;;;9.60;99.90;;;;;;5027341;28;20180;-74
2022/01/01 06:56:43;;;;;;;7.03;6.25;;;9.50;99.90;;;;;;5031386;28;20787;-75
2022/01/01 06:59:09;;;;;;;6.90;6.20;;;9.60;99.90;;;;;;5032409;28;20243;-74
2022/01/01 07:01:36;;;;;;;7.30;6.18;;;9.60;99.90;;;;;;5025714;28;20280;-75
2022/01/01 07:04:01;;;;;;;8.55;6.70;;;9.50;99.90;;;;;;5027352;28;20204;-74
2022/01/01 07:06:27;;;;;;;9.68;6.20;;;9.40;99.90;;;;;;5026628;28;20643;-75
2022/01/01 07:08:53;;;;;;;8.48;6.95;;;9.30;99.90;;;;;;5027186;28;20649;-75
2022/01/01 07:11:18;;;;;;;7.68;6.85;;;9.30;99.90;;;;;;5026091;28;20207;-74
2022/01/01 07:13:44;;;;;;;9.85;7.50;;;9.20;99.90;;;;;;5026309;28;20322;-75
2022/01/01 07:16:09;;;;;;;6.97;5.95;;;9.20;99.90;;;;;;5025150;28;20211;-75
2022/01/01 07:18:35;;;;;;;7.20;6.47;;;9.10;99.90;;;;;;5026836;28;20293;-74
2022/01/01 07:21:00;;;;;;;7.57;6.38;;;9.10;99.90;;;;;;5030671;28;20200;-74
2022/01/01 07:23:26;;;;;;;7.82;6.60;;;9.20;99.90;;;;;;5024919;28;20442;-75
2022/01/01 07:25:52;;;;;;;7.80;7.00;;;9.30;99.90;;;;;;5022661;28;20647;-74
2022/01/01 07:28:17;;;;;;;6.75;6.03;;;9.40;99.90;;;;;;5027920;28;20188;-74
2022/01/01 07:30:44;;;;;;;10.38;6.25;;;9.40;99.90;;;;;;5027214;28;20572;-74
2022/01/01 07:33:14;;;;;;;7.63;6.20;;;9.40;99.90;;;;;;5036045;28;20220;-75
2022/01/01 07:35:40;;;;;;;10.30;5.97;;;9.40;99.90;;;;;;5029667;28;20291;-75
2022/01/01 07:38:06;;;;;;;5.80;5.03;;;9.50;99.90;;;;;;5028520;28;20211;-75
2022/01/01 07:40:34;;;;;;;7.47;6.00;;;9.60;99.90;;;;;;5025978;28;20254;-75
2022/01/01 07:43:01;;;;;;;7.82;6.25;;;9.60;99.90;;;;;;5030860;28;20184;-75
2022/01/01 07:45:26;;;;;;;5.20;4.70;;;9.70;99.90;;;;;;5020904;28;20559;-75
2022/01/01 07:47:52;;;;;;;6.57;5.03;;;9.70;99.90;;;;;;5024161;28;20199;-75
2022/01/01 07:50:18;;;;;;;5.70;5.10;;;9.80;99.90;;;;;;5035551;28;20204;-75
2022/01/01 07:52:43;;;;;;;7.68;5.00;;;9.90;99.90;;;;;;5030314;28;20252;-75
2022/01/01 07:55:10;;;;;;;5.38;4.82;;;10.00;99.90;;;;;;5022037;28;20183;-75
2022/01/01 07:57:36;;;;;;;5.82;5.22;;;10.10;99.90;;;;;;5023633;28;20231;-75
2022/01/01 08:00:03;;;;;;;6.13;5.20;;;10.10;99.90;;;;;;5032315;28;20192;-75
2022/01/01 08:02:29;;;;;;;6.13;5.40;;;10.20;99.90;;;;;;5027843;28;20184;-75
2022/01/01 08:04:55;;;;;;;5.97;5.30;;;10.20;99.90;;;;;;5026589;28;20176;-76
2022/01/01 08:07:20;;;;;;;6.13;5.20;;;10.30;99.90;;;;;;5024605;28;20271;-75
2022/01/01 08:09:46;;;;;;;4.38;3.92;;;10.40;99.90;;;;;;5024728;28;20207;-75
2022/01/01 08:12:11;;;;;;;4.85;4.45;;;10.40;99.90;;;;;;5021826;28;20207;-75
2022/01/01 08:14:37;;;;;;;6.65;5.20;;;10.50;99.90;;;;;;5023991;28;20203;-76
2022/01/01 08:17:05;;;;;;;4.70;4.30;;;10.50;99.90;;;;;;5023091;28;20657;-75
2022/01/01 08:19:31;;;;;;;6.80;4.43;;;10.50;99.90;;;;;;5027639;28;20300;-75
2022/01/01 08:21:57;;;;;;;6.50;4.78;;;10.60;99.90;;;;;;5029183;28;20204;-74
2022/01/01 08:24:23;;;;;;;7.03;4.35;;;10.60;99.90;;;;;;5028566;28;20176;-74
2022/01/01 08:26:50;;;;;;;6.55;4.68;;;10.50;99.90;;;;;;5031264;28;20195;-75
2022/01/01 08:29:16;;;;;;;6.53;4.80;;;10.60;99.90;;;;;;5029246;28;20673;-75
2022/01/01 08:31:42;;;;;;;8.98;7.53;;;10.60;99.90;;;;;;5028579;28;20217;-75
2022/01/01 08:34:07;;;;;;;5.00;4.50;;;10.60;99.90;;;;;;5030817;28;20188;-76
2022/01/01 08:36:33;;;;;;;5.30;4.15;;;10.70;99.90;;;;;;5027445;28;20187;-76
2022/01/01 08:38:59;;;;;;;4.30;3.90;;;10.70;99.90;;;;;;5035137;28;20215;-75
2022/01/01 08:41:25;;;;;;;6.80;4.38;;;10.90;99.90;;;;;;5026337;28;20198;-75
2022/01/01 08:43:52;;;;;;;4.28;3.90;;;10.90;99.90;;;;;;5034189;28;20596;-75
2022/01/01 08:46:17;;;;;;;5.22;4.38;;;11.00;99.90;;;;;;5039656;28;20181;-75
2022/01/01 08:48:43;;;;;;;4.80;4.22;;;10.90;99.90;;;;;;5036263;28;20196;-75
2022/01/01 08:51:19;;;;;;;4.07;3.78;;;10.90;99.90;;;;;;5036786;28;20219;-75
2022/01/01 08:53:46;;;;;;;4.63;4.10;;;11.00;99.90;;;;;;5031989;28;20279;-74
2022/01/01 08:56:13;;;;;;;3.78;3.42;;;11.20;99.90;;;;;;5034093;28;20231;-74
2022/01/01 08:58:42;;;;;;;4.15;3.53;;;11.20;99.90;;;;;;5031816;28;20335;-74
2022/01/01 09:01:08;;;;;;;4.93;3.50;;;11.40;99.90;;;;;;5034988;28;20709;-74
2022/01/01 09:03:35;;;;;;;4.10;3.70;;;11.50;99.90;;;;;;5035121;28;20908;-74
2022/01/01 09:06:02;;;;;;;4.05;3.70;;;11.60;99.90;;;;;;5034763;28;20647;-74
2022/01/01 09:08:29;;;;;;;3.80;3.42;;;11.80;99.90;;;;;;5035371;28;20197;-73
2022/01/01 09:10:55;;;;;;;4.47;3.90;;;12.00;99.90;;;;;;5036355;28;20204;-74
2022/01/01 09:13:20;;;;;;;4.43;3.58;;;12.00;99.90;;;;;;5033895;28;20240;-74
2022/01/01 09:15:46;;;;;;;3.90;3.45;;;11.90;99.90;;;;;;5031606;28;20613;-73
2022/01/01 09:18:12;;;;;;;4.90;3.65;;;12.00;99.90;;;;;;5037326;28;20219;-73
2022/01/01 09:20:37;;;;;;;3.40;3.10;;;12.10;99.90;;;;;;5036109;28;20213;-73
2022/01/01 09:23:03;;;;;;;4.10;3.67;;;12.10;99.90;;;;;;5035656;28;20268;-73
2022/01/01 09:25:29;;;;;;;5.25;4.00;;;12.20;99.90;;;;;;5036347;28;20181;-73
2022/01/01 09:27:54;;;;;;;5.80;4.45;;;12.40;99.90;;;;;;5030178;28;20346;-74
2022/01/01 09:30:20;;;;;;;4.32;3.90;;;12.50;99.90;;;;;;5036606;28;20635;-74
2022/01/01 09:32:45;;;;;;;4.95;4.18;;;12.40;99.90;;;;;;5029491;28;20189;-73
2022/01/01 09:35:11;;;;;;;4.45;4.00;;;12.40;99.90;;;;;;5031789;28;20189;-74
2022/01/01 09:37:37;;;;;;;4.05;3.72;;;12.60;99.90;;;;;;5031394;28;20267;-74
2022/01/01 09:40:03;;;;;;;4.93;3.47;;;12.80;99.90;;;;;;5037983;28;20182;-74
2022/01/01 09:42:30;;;;;;;4.18;3.78;;;12.90;99.90;;;;;;5034736;28;20212;-74
2022/01/01 09:44:58;;;;;;;4.03;3.63;;;13.00;99.90;;;;;;5035855;28;20177;-75
2022/01/01 09:47:25;;;;;;;4.65;3.67;;;13.10;99.90;;;;;;5032232;28;20180;-74
2022/01/01 09:49:51;;;;;;;4.30;3.70;;;13.20;99.90;;;;;;5032230;28;20181;-73
2022/01/01 09:52:17;;;;;;;6.88;3.60;;;13.20;99.90;;;;;;5018868;28;20262;-74
2022/01/01 09:54:43;;;;;;;3.78;3.38;;;13.40;99.90;;;;;;5024077;28;20185;-74
2022/01/01 09:57:10;;;;;;;3.88;3.47;;;13.30;99.90;;;;;;5028697;28;20658;-73
2022/01/01 09:59:38;;;;;;;4.07;3.67;;;13.30;99.90;;;;;;5024576;28;20201;-74
2022/01/01 10:02:04;;;;;;;3.60;3.30;;;13.10;99.90;;;;;;5030660;28;20211;-74
2022/01/01 10:04:43;;;;;;;4.05;3.20;;;13.40;99.90;;;;;;5034412;28;20393;-73
2022/01/01 10:07:10;;;;;;;2.80;2.60;;;13.50;99.90;;;;;;5028769;28;20655;-74
2022/01/01 10:09:37;;;;;;;2.88;2.67;;;13.70;99.90;;;;;;5027104;28;20597;-75
2022/01/01 10:12:07;;;;;;;2.97;2.78;;;13.80;99.90;;;;;;5029174;28;20205;-74
2022/01/01 10:14:37;;;;;;;3.20;2.90;;;14.00;99.90;;;;;;5032291;28;20323;-74
2022/01/01 10:17:21;;;;;;;2.90;2.70;;;14.30;99.90;;;;;;5032910;28;20647;-73
2022/01/01 10:19:53;;;;;;;3.95;2.67;;;14.50;99.90;;;;;;5033045;28;20254;-74
2022/01/01 10:22:20;;;;;;;2.63;2.38;;;14.60;99.90;;;;;;5029391;28;20209;-73
2022/01/01 10:27:47;;;;;;;4.07;2.53;;;14.90;99.90;;;;;;5032010;28;20214;-73
2022/01/01 10:30:17;;;;;;;2.65;2.30;;;15.60;99.90;;;;;;5022053;28;20200;-73
2022/01/01 10:33:07;;;;;;;2.80;2.50;;;16.50;99.90;;;;;;5027146;28;20667;-73
2022/01/01 10:35:42;;;;;;;2.70;2.22;;;18.00;99.90;;;;;;5063731;28;20374;-77
2022/01/01 10:38:20;;;;;;;2.95;2.42;;;19.40;99.90;;;;;;5030754;28;20682;-73
2022/01/01 10:40:46;;;;;;;3.05;2.75;;;20.30;99.90;;;;;;5022208;28;20233;-73
2022/01/01 10:43:16;;;;;;;3.10;2.90;;;20.90;99.90;;;;;;5032856;28;21209;-74
2022/01/01 10:45:48;;;;;;;2.72;2.53;;;20.10;99.90;;;;;;5025231;28;20177;-73
2022/01/01 10:48:28;;;;;;;1.92;1.83;;;19.70;99.90;;;;;;5033383;28;20181;-73
2022/01/01 10:50:56;;;;;;;2.38;2.03;;;19.20;99.90;;;;;;5029966;28;20742;-74
2022/01/01 10:53:27;;;;;;;2.40;2.20;;;18.80;99.90;;;;;;5024730;28;20223;-73
2022/01/01 10:55:55;;;;;;;2.67;2.47;;;18.90;99.90;;;;;;5029933;28;20176;-73
2022/01/01 10:58:23;;;;;;;3.53;2.00;;;18.70;99.90;;;;;;5023411;28;20197;-76
2022/01/01 11:00:50;;;;;;;2.33;2.13;;;18.40;99.90;;;;;;5028833;28;20208;-74
2022/01/01 11:03:18;;;;;;;2.78;2.25;;;18.00;99.90;;;;;;5027715;28;20176;-74
2022/01/01 11:05:45;;;;;;;2.47;2.28;;;17.80;99.90;;;;;;5027977;28;20186;-75
2022/01/01 11:08:11;;;;;;;2.45;1.80;;;17.60;99.90;;;;;;5024552;28;20222;-75
2022/01/01 11:10:39;;;;;;;2.55;1.70;;;17.60;99.90;;;;;;5028330;28;20550;-74
2022/01/01 11:13:06;;;;;;;1.90;1.80;;;17.60;99.90;;;;;;5025906;28;20181;-74
2022/01/01 11:15:32;;;;;;;2.03;1.90;;;17.10;99.90;;;;;;5023261;28;20581;-74
2022/01/01 11:17:59;;;;;;;3.78;2.17;;;16.70;99.90;;;;;;5030120;28;20200;-74
2022/01/01 11:20:30;;;;;;;2.20;1.40;;;16.30;99.90;;;;;;5030487;28;20197;-74
2022/01/01 11:22:56;;;;;;;1.92;1.50;;;15.90;99.90;;;;;;5030036;28;20181;-74
2022/01/01 11:25:22;;;;;;;1.58;1.48;;;15.50;99.90;;;;;;5037368;28;20185;-73
2022/01/01 11:27:48;;;;;;;2.15;1.65;;;15.50;99.90;;;;;;5025695;28;20177;-74
2022/01/01 11:30:15;;;;;;;1.65;1.55;;;15.50;99.90;;;;;;5033729;28;20652;-75
2022/01/01 11:32:44;;;;;;;2.67;1.40;;;15.40;99.90;;;;;;5027634;28;20656;-75
2022/01/01 11:35:11;;;;;;;2.13;1.67;;;15.30;99.90;;;;;;5030695;28;20184;-74
2022/01/01 11:37:53;;;;;;;2.67;1.45;;;15.40;99.90;;;;;;5031966;28;20262;-75
2022/01/01 11:40:18;;;;;;;2.67;1.40;;;15.10;99.90;;;;;;5031093;28;20188;-74
2022/01/01 11:42:46;;;;;;;2.35;1.58;;;15.20;99.90;;;;;;5022468;28;20180;-74
2022/01/01 11:45:32;;;;;;;1.77;1.48;;;14.90;99.90;;;;;;5024512;28;20677;-74
2022/01/01 11:48:31;;;;;;;2.80;1.52;;;14.60;99.90;;;;;;5027412;28;20189;-74
2022/01/01 11:51:17;;;;;;;2.22;1.23;;;14.50;99.90;;;;;;5028881;28;20690;-74
2022/01/01 11:54:14;;;;;;;1.65;1.33;;;14.30;99.90;;;;;;5027052;28;20884;-74
2022/01/01 11:57:00;;;;;;;1.65;1.02;;;14.30;99.90;;;;;;5025831;28;20188;-74
2022/01/01 11:59:37;;;;;;;1.35;1.08;;;14.20;99.90;;;;;;5029186;28;20713;-74
2022/01/01 12:02:04;;;;;;;1.92;1.60;;;14.10;99.90;;;;;;5028039;28;20209;-74
2022/01/01 12:04:31;;;;;;;1.50;1.40;;;14.10;99.90;;;;;;5025820;28;20173;-74
2022/01/01 12:07:09;;;;;;;2.08;1.50;;;14.00;99.90;;;;;;5024066;28;20262;-73
2022/01/01 12:10:06;;;;;;;1.60;1.50;;;13.90;99.90;;;;;;5027424;28;20180;-74
2022/01/01 12:12:37;;;;;;;1.63;1.25;;;14.00;99.90;;;;;;5025402;28;20211;-74
2022/01/01 12:15:06;;;;;;;1.00;1.00;;;14.10;99.90;;;;;;5025363;28;20276;-74
2022/01/01 12:17:45;;;;;;;1.27;1.10;;;14.20;99.90;;;;;;5023280;28;20189;-73
2022/01/01 12:20:19;;;;;;;1.10;1.10;;;14.00;99.90;;;;;;5025559;28;20223;-74
2022/01/01 12:22:46;;;;;;;2.90;1.35;;;14.00;99.90;;;;;;5024801;28;20593;-74
2022/01/01 12:25:17;;;;;;;1.63;1.20;;;14.00;99.90;;;;;;5025536;28;20639;-75
2022/01/01 12:27:47;;;;;;;1.38;1.30;;;14.10;99.90;;;;;;5023394;28;20177;-74
2022/01/01 12:30:16;;;;;;;2.30;1.42;;;14.20;99.90;;;;;;5024960;28;20192;-72
2022/01/01 12:32:44;;;;;;;1.48;1.13;;;14.10;99.90;;;;;;5026104;28;20181;-72
2022/01/01 12:35:17;;;;;;;1.50;1.40;;;14.20;99.90;;;;;;5026181;28;20550;-73
2022/01/01 12:37:43;;;;;;;0.80;0.80;;;14.40;99.90;;;;;;5028496;28;20239;-72
2022/01/01 12:40:10;;;;;;;2.15;1.75;;;14.70;99.90;;;;;;5028743;28;20183;-73
2022/01/01 12:42:36;;;;;;;1.23;1.23;;;14.80;99.90;;;;;;5022973;28;20208;-73
2022/01/01 12:45:07;;;;;;;1.77;1.50;;;14.80;99.90;;;;;;5027654;28;20652;-74
2022/01/01 12:47:34;;;;;;;1.00;0.95;;;15.00;99.90;;;;;;5029569;28;20232;-73
2022/01/01 12:50:05;;;;;;;3.13;0.90;;;14.90;99.90;;;;;;5039337;28;20258;-73
2022/01/01 12:52:31;;;;;;;2.28;1.98;;;15.00;99.90;;;;;;5031731;28;20263;-72
2022/01/01 12:54:58;;;;;;;3.25;1.25;;;15.10;99.90;;;;;;5035313;28;20188;-73
2022/01/01 12:57:24;;;;;;;1.30;1.30;;;15.00;99.90;;;;;;5039893;28;20188;-72
2022/01/01 12:59:50;;;;;;;1.50;1.23;;;14.90;99.90;;;;;;5036979;28;20212;-72